sensor_id;sensor_type;location;lat;lon;timestamp;P1;durP1;ratioP1;P2;durP2;ratioP2
46675;SDS011;32412;51.478;5.694;2023-04-08T00:00:22;32.97;;;16.17;;
46675;SDS011;32412;51.478;5.694;2023-04-08T00:02:48;33.33;;;15.90;;
46675;SDS011;32412;51.478;5.694;2023-04-08T00:05:14;29.67;;;15.80;;
46675;SDS011;32412;51.478;5.694;2023-04-08T00:07:40;36.65;;;15.82;;
46675;SDS011;32412;51.478;5.694;2023-04-08T00:10:06;32.80;;;15.63;;
46675;SDS011;32412;51.478;5.694;2023-04-08T00:12:32;32.05;;;16.45;;
46675;SDS011;32412;51.478;5.694;2023-04-08T00:14:58;34.60;;;15.93;;
46675;SDS011;32412;51.478;5.694;2023-04-08T00:17:23;36.20;;;16.23;;
46675;SDS011;32412;51.478;5.694;2023-04-08T00:19:50;31.92;;;16.95;;
46675;SDS011;32412;51.478;5.694;2023-04-08T00:22:15;35.58;;;16.35;;
46675;SDS011;32412;51.478;5.694;2023-04-08T00:24:41;35.88;;;16.25;;
46675;SDS011;32412;51.478;5.694;2023-04-08T00:27:07;35.97;;;16.65;;
46675;SDS011;32412;51.478;5.694;2023-04-08T00:29:33;40.78;;;16.15;;
46675;SDS011;32412;51.478;5.694;2023-04-08T00:31:59;43.97;;;17.42;;
46675;SDS011;32412;51.478;5.694;2023-04-08T00:34:24;34.80;;;17.48;;
46675;SDS011;32412;51.478;5.694;2023-04-08T00:36:51;33.08;;;17.20;;
46675;SDS011;32412;51.478;5.694;2023-04-08T00:39:16;29.98;;;17.80;;
46675;SDS011;32412;51.478;5.694;2023-04-08T00:41:42;31.85;;;17.55;;
46675;SDS011;32412;51.478;5.694;2023-04-08T00:44:07;39.47;;;17.90;;
46675;SDS011;32412;51.478;5.694;2023-04-08T00:46:35;37.05;;;17.92;;
46675;SDS011;32412;51.478;5.694;2023-04-08T00:49:03;44.10;;;17.98;;
46675;SDS011;32412;51.478;5.694;2023-04-08T00:51:31;38.50;;;17.38;;
46675;SDS011;32412;51.478;5.694;2023-04-08T00:53:57;41.30;;;18.17;;
46675;SDS011;32412;51.478;5.694;2023-04-08T00:56:24;41.58;;;18.80;;
46675;SDS011;32412;51.478;5.694;2023-04-08T00:58:51;44.92;;;19.25;;
46675;SDS011;32412;51.478;5.694;2023-04-08T01:04:52;42.38;;;19.48;;
46675;SDS011;32412;51.478;5.694;2023-04-08T01:07:16;41.47;;;20.48;;
46675;SDS011;32412;51.478;5.694;2023-04-08T01:09:47;46.72;;;19.80;;
46675;SDS011;32412;51.478;5.694;2023-04-08T01:12:28;50.90;;;21.38;;
46675;SDS011;32412;51.478;5.694;2023-04-08T01:14:58;43.38;;;20.95;;
46675;SDS011;32412;51.478;5.694;2023-04-08T01:17:26;43.45;;;22.10;;
46675;SDS011;32412;51.478;5.694;2023-04-08T01:19:54;49.78;;;20.70;;
46675;SDS011;32412;51.478;5.694;2023-04-08T01:25:35;52.65;;;22.00;;
46675;SDS011;32412;51.478;5.694;2023-04-08T01:30:42;45.20;;;21.27;;
46675;SDS011;32412;51.478;5.694;2023-04-08T01:33:11;50.80;;;21.52;;
46675;SDS011;32412;51.478;5.694;2023-04-08T01:35:42;54.35;;;22.75;;
46675;SDS011;32412;51.478;5.694;2023-04-08T01:38:13;51.13;;;22.40;;
46675;SDS011;32412;51.478;5.694;2023-04-08T01:40:41;53.00;;;23.45;;
46675;SDS011;32412;51.478;5.694;2023-04-08T01:43:07;65.28;;;26.13;;
46675;SDS011;32412;51.478;5.694;2023-04-08T01:45:35;56.72;;;23.17;;
46675;SDS011;32412;51.478;5.694;2023-04-08T01:48:11;59.25;;;22.77;;
46675;SDS011;32412;51.478;5.694;2023-04-08T01:53:08;57.85;;;23.42;;
46675;SDS011;32412;51.478;5.694;2023-04-08T01:55:39;61.47;;;24.45;;
46675;SDS011;32412;51.478;5.694;2023-04-08T01:58:10;49.65;;;23.73;;
46675;SDS011;32412;51.478;5.694;2023-04-08T02:00:43;54.83;;;23.23;;
46675;SDS011;32412;51.478;5.694;2023-04-08T02:03:11;58.17;;;22.65;;
46675;SDS011;32412;51.478;5.694;2023-04-08T02:05:43;64.70;;;23.92;;
46675;SDS011;32412;51.478;5.694;2023-04-08T02:08:12;58.28;;;24.27;;
46675;SDS011;32412;51.478;5.694;2023-04-08T02:10:38;73.57;;;24.95;;
46675;SDS011;32412;51.478;5.694;2023-04-08T02:15:39;53.85;;;23.80;;
46675;SDS011;32412;51.478;5.694;2023-04-08T02:18:15;58.35;;;23.70;;
46675;SDS011;32412;51.478;5.694;2023-04-08T02:20:50;71.20;;;24.63;;
46675;SDS011;32412;51.478;5.694;2023-04-08T02:23:23;71.07;;;26.15;;
46675;SDS011;32412;51.478;5.694;2023-04-08T02:25:53;71.43;;;24.17;;
46675;SDS011;32412;51.478;5.694;2023-04-08T02:28:20;76.20;;;26.00;;
46675;SDS011;32412;51.478;5.694;2023-04-08T02:30:49;62.85;;;25.40;;
46675;SDS011;32412;51.478;5.694;2023-04-08T02:33:22;62.63;;;24.35;;
46675;SDS011;32412;51.478;5.694;2023-04-08T02:35:51;66.72;;;24.83;;
46675;SDS011;32412;51.478;5.694;2023-04-08T02:38:19;69.70;;;25.02;;
46675;SDS011;32412;51.478;5.694;2023-04-08T02:40:45;77.93;;;25.15;;
46675;SDS011;32412;51.478;5.694;2023-04-08T02:43:14;78.03;;;24.48;;
46675;SDS011;32412;51.478;5.694;2023-04-08T02:45:45;85.95;;;26.40;;
46675;SDS011;32412;51.478;5.694;2023-04-08T02:48:11;83.45;;;25.90;;
46675;SDS011;32412;51.478;5.694;2023-04-08T02:50:40;71.63;;;25.75;;
46675;SDS011;32412;51.478;5.694;2023-04-08T02:53:06;70.60;;;24.20;;
46675;SDS011;32412;51.478;5.694;2023-04-08T02:55:35;68.78;;;25.45;;
46675;SDS011;32412;51.478;5.694;2023-04-08T02:58:04;77.80;;;27.23;;
46675;SDS011;32412;51.478;5.694;2023-04-08T03:00:32;72.28;;;25.73;;
46675;SDS011;32412;51.478;5.694;2023-04-08T03:03:07;68.90;;;24.58;;
46675;SDS011;32412;51.478;5.694;2023-04-08T03:05:35;76.45;;;27.10;;
46675;SDS011;32412;51.478;5.694;2023-04-08T03:08:04;82.38;;;27.25;;
46675;SDS011;32412;51.478;5.694;2023-04-08T03:10:30;72.78;;;27.80;;
46675;SDS011;32412;51.478;5.694;2023-04-08T03:12:59;79.07;;;29.33;;
46675;SDS011;32412;51.478;5.694;2023-04-08T03:15:28;70.57;;;28.25;;
46675;SDS011;32412;51.478;5.694;2023-04-08T03:17:53;76.45;;;28.17;;
46675;SDS011;32412;51.478;5.694;2023-04-08T03:20:19;84.03;;;28.08;;
46675;SDS011;32412;51.478;5.694;2023-04-08T03:22:45;79.65;;;27.05;;
46675;SDS011;32412;51.478;5.694;2023-04-08T03:25:13;80.80;;;28.30;;
46675;SDS011;32412;51.478;5.694;2023-04-08T03:27:39;79.25;;;29.58;;
46675;SDS011;32412;51.478;5.694;2023-04-08T03:30:05;70.00;;;26.80;;
46675;SDS011;32412;51.478;5.694;2023-04-08T03:32:34;79.15;;;28.00;;
46675;SDS011;32412;51.478;5.694;2023-04-08T03:35:03;74.22;;;28.50;;
46675;SDS011;32412;51.478;5.694;2023-04-08T03:37:29;73.45;;;27.98;;
46675;SDS011;32412;51.478;5.694;2023-04-08T03:39:55;78.53;;;27.15;;
46675;SDS011;32412;51.478;5.694;2023-04-08T03:42:21;69.32;;;27.52;;
46675;SDS011;32412;51.478;5.694;2023-04-08T03:44:47;73.25;;;27.15;;
46675;SDS011;32412;51.478;5.694;2023-04-08T03:47:16;78.90;;;27.50;;
46675;SDS011;32412;51.478;5.694;2023-04-08T03:49:42;81.78;;;28.40;;
46675;SDS011;32412;51.478;5.694;2023-04-08T03:52:07;80.78;;;27.23;;
46675;SDS011;32412;51.478;5.694;2023-04-08T03:54:33;71.18;;;26.33;;
46675;SDS011;32412;51.478;5.694;2023-04-08T03:56:59;77.00;;;25.85;;
46675;SDS011;32412;51.478;5.694;2023-04-08T03:59:25;77.88;;;26.52;;
46675;SDS011;32412;51.478;5.694;2023-04-08T04:01:51;78.07;;;26.25;;
46675;SDS011;32412;51.478;5.694;2023-04-08T04:04:17;80.18;;;26.38;;
46675;SDS011;32412;51.478;5.694;2023-04-08T04:06:43;79.93;;;27.63;;
46675;SDS011;32412;51.478;5.694;2023-04-08T04:09:09;76.00;;;27.20;;
46675;SDS011;32412;51.478;5.694;2023-04-08T04:11:35;73.53;;;27.38;;
46675;SDS011;32412;51.478;5.694;2023-04-08T04:14:01;85.82;;;27.33;;
46675;SDS011;32412;51.478;5.694;2023-04-08T04:16:27;77.78;;;27.08;;
46675;SDS011;32412;51.478;5.694;2023-04-08T04:18:54;74.57;;;27.05;;
46675;SDS011;32412;51.478;5.694;2023-04-08T04:21:19;75.20;;;26.73;;
46675;SDS011;32412;51.478;5.694;2023-04-08T04:23:45;78.15;;;27.98;;
46675;SDS011;32412;51.478;5.694;2023-04-08T04:26:11;77.78;;;28.10;;
46675;SDS011;32412;51.478;5.694;2023-04-08T04:28:37;79.32;;;25.60;;
46675;SDS011;32412;51.478;5.694;2023-04-08T04:31:03;87.53;;;28.23;;
46675;SDS011;32412;51.478;5.694;2023-04-08T04:33:29;77.88;;;27.58;;
46675;SDS011;32412;51.478;5.694;2023-04-08T04:35:58;83.32;;;28.80;;
46675;SDS011;32412;51.478;5.694;2023-04-08T04:38:24;82.18;;;27.80;;
46675;SDS011;32412;51.478;5.694;2023-04-08T04:40:51;83.07;;;28.38;;
46675;SDS011;32412;51.478;5.694;2023-04-08T04:43:16;79.90;;;28.08;;
46675;SDS011;32412;51.478;5.694;2023-04-08T04:45:42;88.95;;;28.05;;
46675;SDS011;32412;51.478;5.694;2023-04-08T04:48:09;78.20;;;28.33;;
46675;SDS011;32412;51.478;5.694;2023-04-08T04:50:35;84.07;;;30.05;;
46675;SDS011;32412;51.478;5.694;2023-04-08T05:34:31;103.20;;;32.70;;
46675;SDS011;32412;51.478;5.694;2023-04-08T06:56:35;60.05;;;27.75;;
46675;SDS011;32412;51.478;5.694;2023-04-08T06:59:06;60.75;;;30.17;;
46675;SDS011;32412;51.478;5.694;2023-04-08T07:01:32;49.55;;;25.80;;
46675;SDS011;32412;51.478;5.694;2023-04-08T07:03:58;50.05;;;24.90;;
46675;SDS011;32412;51.478;5.694;2023-04-08T07:06:23;40.97;;;21.77;;
46675;SDS011;32412;51.478;5.694;2023-04-08T07:08:52;38.50;;;20.48;;
46675;SDS011;32412;51.478;5.694;2023-04-08T07:11:21;40.95;;;22.30;;
46675;SDS011;32412;51.478;5.694;2023-04-08T07:14:08;38.35;;;20.45;;
46675;SDS011;32412;51.478;5.694;2023-04-08T07:16:38;42.40;;;22.00;;
46675;SDS011;32412;51.478;5.694;2023-04-08T07:19:04;34.72;;;19.90;;
46675;SDS011;32412;51.478;5.694;2023-04-08T07:21:43;39.67;;;20.80;;
46675;SDS011;32412;51.478;5.694;2023-04-08T07:43:14;33.03;;;19.55;;
46675;SDS011;32412;51.478;5.694;2023-04-08T07:45:39;32.70;;;19.10;;
46675;SDS011;32412;51.478;5.694;2023-04-08T07:48:05;31.88;;;18.63;;
46675;SDS011;32412;51.478;5.694;2023-04-08T07:50:31;35.17;;;20.17;;
46675;SDS011;32412;51.478;5.694;2023-04-08T07:52:57;32.78;;;20.33;;
46675;SDS011;32412;51.478;5.694;2023-04-08T07:55:22;33.60;;;19.27;;
46675;SDS011;32412;51.478;5.694;2023-04-08T07:57:48;32.38;;;18.83;;
46675;SDS011;32412;51.478;5.694;2023-04-08T08:00:14;29.48;;;17.85;;
46675;SDS011;32412;51.478;5.694;2023-04-08T08:02:45;33.80;;;18.83;;
46675;SDS011;32412;51.478;5.694;2023-04-08T08:05:12;34.80;;;18.73;;
46675;SDS011;32412;51.478;5.694;2023-04-08T08:07:38;30.17;;;17.92;;
46675;SDS011;32412;51.478;5.694;2023-04-08T08:10:03;30.40;;;18.38;;
46675;SDS011;32412;51.478;5.694;2023-04-08T08:12:29;31.58;;;17.75;;
46675;SDS011;32412;51.478;5.694;2023-04-08T08:14:55;32.50;;;18.55;;
46675;SDS011;32412;51.478;5.694;2023-04-08T08:17:23;30.95;;;19.02;;
46675;SDS011;32412;51.478;5.694;2023-04-08T08:19:49;32.95;;;19.67;;
46675;SDS011;32412;51.478;5.694;2023-04-08T08:22:17;32.13;;;18.10;;
46675;SDS011;32412;51.478;5.694;2023-04-08T08:24:48;29.38;;;18.13;;
46675;SDS011;32412;51.478;5.694;2023-04-08T08:27:20;31.80;;;17.95;;
46675;SDS011;32412;51.478;5.694;2023-04-08T08:29:46;28.50;;;16.75;;
46675;SDS011;32412;51.478;5.694;2023-04-08T08:32:12;30.00;;;17.63;;
46675;SDS011;32412;51.478;5.694;2023-04-08T08:34:37;31.95;;;19.08;;
46675;SDS011;32412;51.478;5.694;2023-04-08T08:37:03;31.50;;;17.88;;
46675;SDS011;32412;51.478;5.694;2023-04-08T08:39:29;26.42;;;17.13;;
46675;SDS011;32412;51.478;5.694;2023-04-08T08:41:54;27.05;;;16.30;;
46675;SDS011;32412;51.478;5.694;2023-04-08T08:44:21;31.40;;;16.50;;
46675;SDS011;32412;51.478;5.694;2023-04-08T08:46:47;26.50;;;16.48;;
46675;SDS011;32412;51.478;5.694;2023-04-08T08:49:13;28.50;;;17.50;;
46675;SDS011;32412;51.478;5.694;2023-04-08T08:51:39;29.38;;;17.40;;
46675;SDS011;32412;51.478;5.694;2023-04-08T08:54:06;31.08;;;18.67;;
46675;SDS011;32412;51.478;5.694;2023-04-08T08:56:35;29.52;;;17.95;;
46675;SDS011;32412;51.478;5.694;2023-04-08T09:02:32;26.98;;;17.42;;
46675;SDS011;32412;51.478;5.694;2023-04-08T09:05:02;27.45;;;17.00;;
46675;SDS011;32412;51.478;5.694;2023-04-08T09:07:29;29.63;;;17.55;;
46675;SDS011;32412;51.478;5.694;2023-04-08T09:10:02;25.35;;;16.83;;
46675;SDS011;32412;51.478;5.694;2023-04-08T09:12:28;29.42;;;17.83;;
46675;SDS011;32412;51.478;5.694;2023-04-08T09:15:07;31.58;;;19.10;;
46675;SDS011;32412;51.478;5.694;2023-04-08T09:17:37;30.75;;;19.10;;
46675;SDS011;32412;51.478;5.694;2023-04-08T09:20:09;38.30;;;20.15;;
46675;SDS011;32412;51.478;5.694;2023-04-08T09:28:20;32.78;;;19.38;;
46675;SDS011;32412;51.478;5.694;2023-04-08T09:30:45;35.88;;;21.30;;
46675;SDS011;32412;51.478;5.694;2023-04-08T09:33:11;32.90;;;20.20;;
46675;SDS011;32412;51.478;5.694;2023-04-08T09:35:40;34.17;;;20.92;;
46675;SDS011;32412;51.478;5.694;2023-04-08T09:38:05;34.75;;;21.30;;
46675;SDS011;32412;51.478;5.694;2023-04-08T09:40:32;37.72;;;22.35;;
46675;SDS011;32412;51.478;5.694;2023-04-08T09:43:04;37.05;;;21.00;;
46675;SDS011;32412;51.478;5.694;2023-04-08T09:45:33;32.25;;;20.15;;
46675;SDS011;32412;51.478;5.694;2023-04-08T09:48:23;35.28;;;21.33;;
46675;SDS011;32412;51.478;5.694;2023-04-08T09:50:51;36.55;;;21.70;;
46675;SDS011;32412;51.478;5.694;2023-04-08T09:53:35;35.70;;;20.83;;
46675;SDS011;32412;51.478;5.694;2023-04-08T09:56:10;35.67;;;19.38;;
46675;SDS011;32412;51.478;5.694;2023-04-08T10:01:13;32.13;;;19.95;;
46675;SDS011;32412;51.478;5.694;2023-04-08T10:03:48;32.15;;;20.20;;
46675;SDS011;32412;51.478;5.694;2023-04-08T10:06:21;31.58;;;19.88;;
46675;SDS011;32412;51.478;5.694;2023-04-08T10:09:36;31.73;;;19.52;;
46675;SDS011;32412;51.478;5.694;2023-04-08T10:12:33;30.95;;;20.05;;
46675;SDS011;32412;51.478;5.694;2023-04-08T10:21:30;29.90;;;19.70;;
46675;SDS011;32412;51.478;5.694;2023-04-08T10:24:01;29.17;;;19.30;;
46675;SDS011;32412;51.478;5.694;2023-04-08T10:26:40;29.27;;;20.15;;
46675;SDS011;32412;51.478;5.694;2023-04-08T10:29:28;26.90;;;18.45;;
46675;SDS011;32412;51.478;5.694;2023-04-08T10:31:55;29.98;;;19.55;;
46675;SDS011;32412;51.478;5.694;2023-04-08T10:34:34;28.75;;;19.05;;
46675;SDS011;32412;51.478;5.694;2023-04-08T10:37:15;32.05;;;20.08;;
46675;SDS011;32412;51.478;5.694;2023-04-08T10:39:40;28.27;;;19.75;;
46675;SDS011;32412;51.478;5.694;2023-04-08T10:42:16;26.75;;;18.40;;
46675;SDS011;32412;51.478;5.694;2023-04-08T10:44:43;28.05;;;18.52;;
46675;SDS011;32412;51.478;5.694;2023-04-08T10:47:10;26.27;;;19.15;;
46675;SDS011;32412;51.478;5.694;2023-04-08T10:49:36;25.38;;;17.55;;
46675;SDS011;32412;51.478;5.694;2023-04-08T10:52:05;23.55;;;16.73;;
46675;SDS011;32412;51.478;5.694;2023-04-08T10:54:31;23.98;;;17.58;;
46675;SDS011;32412;51.478;5.694;2023-04-08T10:56:57;23.48;;;16.52;;
46675;SDS011;32412;51.478;5.694;2023-04-08T10:59:29;23.08;;;17.73;;
46675;SDS011;32412;51.478;5.694;2023-04-08T11:01:56;23.52;;;17.42;;
46675;SDS011;32412;51.478;5.694;2023-04-08T11:04:23;23.25;;;17.75;;
46675;SDS011;32412;51.478;5.694;2023-04-08T11:06:49;22.92;;;17.27;;
46675;SDS011;32412;51.478;5.694;2023-04-08T11:09:16;23.10;;;18.13;;
46675;SDS011;32412;51.478;5.694;2023-04-08T11:11:42;20.77;;;15.95;;
46675;SDS011;32412;51.478;5.694;2023-04-08T11:14:09;20.27;;;15.73;;
46675;SDS011;32412;51.478;5.694;2023-04-08T11:16:36;21.85;;;17.02;;
46675;SDS011;32412;51.478;5.694;2023-04-08T11:19:02;20.85;;;16.42;;
46675;SDS011;32412;51.478;5.694;2023-04-08T11:21:30;21.77;;;16.08;;
46675;SDS011;32412;51.478;5.694;2023-04-08T11:23:59;20.50;;;16.42;;
46675;SDS011;32412;51.478;5.694;2023-04-08T11:26:25;21.80;;;17.40;;
46675;SDS011;32412;51.478;5.694;2023-04-08T11:28:52;22.77;;;17.65;;
46675;SDS011;32412;51.478;5.694;2023-04-08T11:31:20;22.35;;;18.08;;
46675;SDS011;32412;51.478;5.694;2023-04-08T11:33:47;22.83;;;17.27;;
46675;SDS011;32412;51.478;5.694;2023-04-08T11:36:14;21.63;;;16.60;;
46675;SDS011;32412;51.478;5.694;2023-04-08T11:38:41;23.27;;;17.35;;
46675;SDS011;32412;51.478;5.694;2023-04-08T11:41:07;19.75;;;16.70;;
46675;SDS011;32412;51.478;5.694;2023-04-08T11:43:35;21.77;;;17.52;;
46675;SDS011;32412;51.478;5.694;2023-04-08T11:46:07;19.73;;;16.95;;
46675;SDS011;32412;51.478;5.694;2023-04-08T11:48:37;21.38;;;17.98;;
46675;SDS011;32412;51.478;5.694;2023-04-08T11:51:12;21.88;;;18.10;;
46675;SDS011;32412;51.478;5.694;2023-04-08T11:53:38;21.52;;;17.05;;
46675;SDS011;32412;51.478;5.694;2023-04-08T11:56:16;21.92;;;18.30;;
46675;SDS011;32412;51.478;5.694;2023-04-08T11:58:43;20.88;;;16.70;;
46675;SDS011;32412;51.478;5.694;2023-04-08T12:01:09;21.08;;;16.73;;
46675;SDS011;32412;51.478;5.694;2023-04-08T12:03:35;21.55;;;17.58;;
46675;SDS011;32412;51.478;5.694;2023-04-08T12:06:01;21.77;;;17.48;;
46675;SDS011;32412;51.478;5.694;2023-04-08T12:08:29;19.85;;;16.40;;
46675;SDS011;32412;51.478;5.694;2023-04-08T12:10:55;20.48;;;17.08;;
46675;SDS011;32412;51.478;5.694;2023-04-08T12:13:21;21.77;;;18.08;;
46675;SDS011;32412;51.478;5.694;2023-04-08T12:15:46;19.65;;;17.02;;
46675;SDS011;32412;51.478;5.694;2023-04-08T12:18:12;21.98;;;16.77;;
46675;SDS011;32412;51.478;5.694;2023-04-08T12:20:38;18.73;;;15.23;;
46675;SDS011;32412;51.478;5.694;2023-04-08T12:23:06;16.13;;;14.15;;
46675;SDS011;32412;51.478;5.694;2023-04-08T12:25:32;15.63;;;13.93;;
46675;SDS011;32412;51.478;5.694;2023-04-08T12:27:58;17.48;;;14.38;;
46675;SDS011;32412;51.478;5.694;2023-04-08T12:30:23;17.25;;;14.45;;
46675;SDS011;32412;51.478;5.694;2023-04-08T12:32:52;143.60;;;88.10;;
46675;SDS011;32412;51.478;5.694;2023-04-08T12:35:21;18.33;;;16.30;;
46675;SDS011;32412;51.478;5.694;2023-04-08T12:37:50;16.05;;;13.55;;
46675;SDS011;32412;51.478;5.694;2023-04-08T12:40:16;18.48;;;14.75;;
46675;SDS011;32412;51.478;5.694;2023-04-08T12:42:43;16.75;;;15.05;;
46675;SDS011;32412;51.478;5.694;2023-04-08T12:45:08;16.63;;;14.90;;
46675;SDS011;32412;51.478;5.694;2023-04-08T12:47:34;17.15;;;15.35;;
46675;SDS011;32412;51.478;5.694;2023-04-08T12:50:00;16.45;;;14.75;;
46675;SDS011;32412;51.478;5.694;2023-04-08T12:52:26;18.08;;;15.38;;
46675;SDS011;32412;51.478;5.694;2023-04-08T12:54:51;18.63;;;15.00;;
46675;SDS011;32412;51.478;5.694;2023-04-08T12:57:17;20.05;;;15.85;;
46675;SDS011;32412;51.478;5.694;2023-04-08T12:59:43;19.60;;;15.77;;
46675;SDS011;32412;51.478;5.694;2023-04-08T13:02:11;17.73;;;14.60;;
46675;SDS011;32412;51.478;5.694;2023-04-08T13:04:37;18.25;;;14.65;;
46675;SDS011;32412;51.478;5.694;2023-04-08T13:07:03;19.10;;;14.98;;
46675;SDS011;32412;51.478;5.694;2023-04-08T13:09:29;18.10;;;13.73;;
46675;SDS011;32412;51.478;5.694;2023-04-08T13:11:57;16.63;;;13.35;;
46675;SDS011;32412;51.478;5.694;2023-04-08T13:14:23;17.50;;;14.20;;
46675;SDS011;32412;51.478;5.694;2023-04-08T13:16:49;17.35;;;13.98;;
46675;SDS011;32412;51.478;5.694;2023-04-08T13:19:15;19.73;;;14.75;;
46675;SDS011;32412;51.478;5.694;2023-04-08T13:21:41;17.17;;;14.48;;
46675;SDS011;32412;51.478;5.694;2023-04-08T13:24:09;21.73;;;14.75;;
46675;SDS011;32412;51.478;5.694;2023-04-08T13:26:45;16.90;;;14.18;;
46675;SDS011;32412;51.478;5.694;2023-04-08T13:29:11;17.17;;;14.00;;
46675;SDS011;32412;51.478;5.694;2023-04-08T13:31:36;18.23;;;14.25;;
46675;SDS011;32412;51.478;5.694;2023-04-08T13:34:02;19.17;;;15.18;;
46675;SDS011;32412;51.478;5.694;2023-04-08T13:36:28;24.73;;;18.05;;
46675;SDS011;32412;51.478;5.694;2023-04-08T13:38:54;34.03;;;22.00;;
46675;SDS011;32412;51.478;5.694;2023-04-08T13:41:20;70.65;;;39.22;;
46675;SDS011;32412;51.478;5.694;2023-04-08T13:43:46;97.05;;;45.78;;
46675;SDS011;32412;51.478;5.694;2023-04-08T13:46:11;197.38;;;68.13;;
46675;SDS011;32412;51.478;5.694;2023-04-08T13:48:37;132.20;;;53.58;;
46675;SDS011;32412;51.478;5.694;2023-04-08T13:51:03;24.55;;;15.18;;
46675;SDS011;32412;51.478;5.694;2023-04-08T13:53:29;23.52;;;17.08;;
46675;SDS011;32412;51.478;5.694;2023-04-08T13:55:55;16.10;;;11.00;;
46675;SDS011;32412;51.478;5.694;2023-04-08T13:58:23;12.23;;;10.10;;
46675;SDS011;32412;51.478;5.694;2023-04-08T14:00:50;14.63;;;10.45;;
46675;SDS011;32412;51.478;5.694;2023-04-08T14:03:16;16.27;;;10.55;;
46675;SDS011;32412;51.478;5.694;2023-04-08T14:05:41;13.27;;;10.85;;
46675;SDS011;32412;51.478;5.694;2023-04-08T14:08:07;13.88;;;10.18;;
46675;SDS011;32412;51.478;5.694;2023-04-08T14:10:35;13.43;;;10.10;;
46675;SDS011;32412;51.478;5.694;2023-04-08T14:13:01;17.10;;;10.75;;
46675;SDS011;32412;51.478;5.694;2023-04-08T14:15:29;12.00;;;9.57;;
46675;SDS011;32412;51.478;5.694;2023-04-08T14:17:55;14.63;;;9.77;;
46675;SDS011;32412;51.478;5.694;2023-04-08T14:20:21;13.27;;;8.05;;
46675;SDS011;32412;51.478;5.694;2023-04-08T14:22:46;11.15;;;7.50;;
46675;SDS011;32412;51.478;5.694;2023-04-08T14:25:15;12.73;;;8.23;;
46675;SDS011;32412;51.478;5.694;2023-04-08T14:27:40;11.48;;;8.27;;
46675;SDS011;32412;51.478;5.694;2023-04-08T14:30:06;12.98;;;9.40;;
46675;SDS011;32412;51.478;5.694;2023-04-08T14:32:32;12.65;;;9.35;;
46675;SDS011;32412;51.478;5.694;2023-04-08T14:34:58;13.43;;;8.45;;
46675;SDS011;32412;51.478;5.694;2023-04-08T14:37:23;13.07;;;8.60;;
46675;SDS011;32412;51.478;5.694;2023-04-08T14:39:49;12.43;;;7.60;;
46675;SDS011;32412;51.478;5.694;2023-04-08T14:42:15;9.43;;;7.10;;
46675;SDS011;32412;51.478;5.694;2023-04-08T14:44:42;10.75;;;8.07;;
46675;SDS011;32412;51.478;5.694;2023-04-08T14:47:08;10.13;;;7.47;;
46675;SDS011;32412;51.478;5.694;2023-04-08T14:49:34;13.57;;;10.60;;
46675;SDS011;32412;51.478;5.694;2023-04-08T14:52:03;12.38;;;8.27;;
46675;SDS011;32412;51.478;5.694;2023-04-08T14:54:28;9.73;;;7.03;;
46675;SDS011;32412;51.478;5.694;2023-04-08T14:56:54;14.32;;;10.63;;
46675;SDS011;32412;51.478;5.694;2023-04-08T14:59:20;11.98;;;7.78;;
46675;SDS011;32412;51.478;5.694;2023-04-08T15:01:46;9.27;;;6.10;;
46675;SDS011;32412;51.478;5.694;2023-04-08T15:04:12;9.52;;;5.97;;
46675;SDS011;32412;51.478;5.694;2023-04-08T15:06:37;8.90;;;6.30;;
46675;SDS011;32412;51.478;5.694;2023-04-08T15:09:04;7.80;;;6.15;;
46675;SDS011;32412;51.478;5.694;2023-04-08T15:11:30;8.40;;;5.95;;
46675;SDS011;32412;51.478;5.694;2023-04-08T15:13:56;8.75;;;5.82;;
46675;SDS011;32412;51.478;5.694;2023-04-08T15:16:21;10.02;;;5.47;;
46675;SDS011;32412;51.478;5.694;2023-04-08T15:18:47;7.22;;;5.15;;
46675;SDS011;32412;51.478;5.694;2023-04-08T15:21:12;9.50;;;5.53;;
46675;SDS011;32412;51.478;5.694;2023-04-08T15:23:38;8.35;;;6.30;;
46675;SDS011;32412;51.478;5.694;2023-04-08T15:26:06;6.70;;;5.32;;
46675;SDS011;32412;51.478;5.694;2023-04-08T15:28:32;7.10;;;5.20;;
46675;SDS011;32412;51.478;5.694;2023-04-08T15:30:58;6.05;;;5.28;;
46675;SDS011;32412;51.478;5.694;2023-04-08T15:33:24;6.90;;;6.00;;
46675;SDS011;32412;51.478;5.694;2023-04-08T15:35:50;7.15;;;5.68;;
46675;SDS011;32412;51.478;5.694;2023-04-08T15:38:16;7.32;;;5.90;;
46675;SDS011;32412;51.478;5.694;2023-04-08T15:40:42;9.18;;;5.28;;
46675;SDS011;32412;51.478;5.694;2023-04-08T15:43:08;7.25;;;5.30;;
46675;SDS011;32412;51.478;5.694;2023-04-08T15:45:40;8.18;;;6.18;;
46675;SDS011;32412;51.478;5.694;2023-04-08T15:48:10;6.60;;;5.38;;
46675;SDS011;32412;51.478;5.694;2023-04-08T15:50:36;8.95;;;5.18;;
46675;SDS011;32412;51.478;5.694;2023-04-08T15:53:02;8.80;;;6.13;;
46675;SDS011;32412;51.478;5.694;2023-04-08T15:55:28;10.45;;;7.35;;
46675;SDS011;32412;51.478;5.694;2023-04-08T15:57:54;8.68;;;6.30;;
46675;SDS011;32412;51.478;5.694;2023-04-08T16:00:21;8.82;;;6.90;;
46675;SDS011;32412;51.478;5.694;2023-04-08T16:02:48;10.10;;;7.53;;
46675;SDS011;32412;51.478;5.694;2023-04-08T16:05:14;8.35;;;7.10;;
46675;SDS011;32412;51.478;5.694;2023-04-08T16:07:40;11.07;;;7.93;;
46675;SDS011;32412;51.478;5.694;2023-04-08T16:10:06;9.23;;;7.50;;
46675;SDS011;32412;51.478;5.694;2023-04-08T16:12:32;9.07;;;7.88;;
46675;SDS011;32412;51.478;5.694;2023-04-08T16:14:58;11.45;;;7.95;;
46675;SDS011;32412;51.478;5.694;2023-04-08T16:17:24;11.02;;;8.05;;
46675;SDS011;32412;51.478;5.694;2023-04-08T16:19:51;10.82;;;8.40;;
46675;SDS011;32412;51.478;5.694;2023-04-08T16:22:17;10.70;;;7.93;;
46675;SDS011;32412;51.478;5.694;2023-04-08T16:24:44;9.63;;;8.05;;
46675;SDS011;32412;51.478;5.694;2023-04-08T16:27:09;8.88;;;7.95;;
46675;SDS011;32412;51.478;5.694;2023-04-08T16:29:35;10.27;;;8.00;;
46675;SDS011;32412;51.478;5.694;2023-04-08T16:32:01;10.38;;;8.13;;
46675;SDS011;32412;51.478;5.694;2023-04-08T16:34:28;12.77;;;8.48;;
46675;SDS011;32412;51.478;5.694;2023-04-08T16:36:54;12.52;;;8.80;;
46675;SDS011;32412;51.478;5.694;2023-04-08T16:39:20;11.25;;;8.68;;
46675;SDS011;32412;51.478;5.694;2023-04-08T16:41:46;11.75;;;8.38;;
46675;SDS011;32412;51.478;5.694;2023-04-08T16:44:11;11.48;;;8.52;;
46675;SDS011;32412;51.478;5.694;2023-04-08T16:46:38;10.90;;;8.75;;
46675;SDS011;32412;51.478;5.694;2023-04-08T16:49:04;10.25;;;7.53;;
46675;SDS011;32412;51.478;5.694;2023-04-08T16:51:30;9.07;;;7.57;;
46675;SDS011;32412;51.478;5.694;2023-04-08T16:53:56;10.57;;;7.70;;
46675;SDS011;32412;51.478;5.694;2023-04-08T16:56:21;9.30;;;7.70;;
46675;SDS011;32412;51.478;5.694;2023-04-08T16:58:47;11.23;;;7.60;;
46675;SDS011;32412;51.478;5.694;2023-04-08T17:01:13;9.68;;;8.00;;
46675;SDS011;32412;51.478;5.694;2023-04-08T17:03:39;11.45;;;8.43;;
46675;SDS011;32412;51.478;5.694;2023-04-08T17:06:11;14.70;;;8.02;;
46675;SDS011;32412;51.478;5.694;2023-04-08T17:08:41;13.38;;;8.60;;
46675;SDS011;32412;51.478;5.694;2023-04-08T17:11:11;10.07;;;7.97;;
46675;SDS011;32412;51.478;5.694;2023-04-08T17:13:38;11.63;;;8.50;;
46675;SDS011;32412;51.478;5.694;2023-04-08T17:16:05;12.48;;;9.13;;
46675;SDS011;32412;51.478;5.694;2023-04-08T17:18:35;12.57;;;9.23;;
46675;SDS011;32412;51.478;5.694;2023-04-08T17:21:00;11.70;;;8.80;;